Terminal Aerodrome Forecast
Issued by NWS St Louis, MO

Home | Current Version | Previous Version | Text Only | Print | Product List | Glossary On
Versions: 1 2 3 4 5 6 7 8 9 10 11 12 13 14 15 16 17 18 19 20 21 22 23 24 25 26 27
431
FTUS43 KLSX 190933 AAA
TAFCOU
TAF AMD
KCOU 190933Z 1910/2006 12006KT 4SM BR VCSH OVC008
     FM200000 VRB04KT 4SM BR OVC008=

USA.gov is the U.S. government's official web portal to all federal, state and local government web resources and services.